Time;durP1;ratioP1;P1;durP2;ratioP2;P2;SDS_P1;SDS_P2;PMS_P1;PMS_P2;Temp;Humidity;BMP_temperature;BMP_pressure;BME280_temperature;BME280_humidity;BME280_pressure;Samples;Min_cycle;Max_cycle;Signal;HPM_P1;HPM_P2
2024/02/06 00:00:28;;;;;;;;;;;;;;;8.48;67.30;99519.69;5114578;28;19919;-67
2024/02/06 00:02:57;;;;;;;;;;;;;;;8.37;67.47;99523.88;5114143;28;19920;-66
2024/02/06 00:05:26;;;;;;;;;;;;;;;8.24;67.87;99502.56;5114166;28;20458;-67
2024/02/06 00:07:54;;;;;;;;;;;;;;;8.20;67.28;99511.03;5096206;28;19920;-65
2024/02/06 00:10:23;;;;;;;;;;;;;;;8.21;68.42;99511.88;5118379;28;19942;-66
2024/02/06 00:12:53;;;;;;;;;;;;;;;8.15;67.90;99515.25;5117931;28;19972;-67
2024/02/06 00:15:22;;;;;;;;;;;;;;;7.94;68.25;99510.84;5118376;28;19920;-66
2024/02/06 00:17:52;;;;;;;;;;;;;;;7.89;68.06;99498.97;5117996;28;19919;-67
2024/02/06 00:20:20;;;;;;;;;;;;;;;8.04;68.19;99499.91;5118719;28;19927;-66
2024/02/06 00:22:49;;;;;;;;;;;;;;;8.21;67.59;99502.56;5118027;28;19920;-67
2024/02/06 00:25:18;;;;;;;;;;;;;;;8.20;68.10;99495.78;5118247;28;19990;-66
2024/02/06 00:27:46;;;;;;;;;;;;;;;8.02;67.64;99496.50;5117845;28;19920;-66
2024/02/06 00:30:15;;;;;;;;;;;;;;;7.96;68.25;99496.50;5118518;28;20269;-67
2024/02/06 00:32:44;;;;;;;;;;;;;;;7.87;68.35;99500.66;5117798;28;20270;-67
2024/02/06 00:35:14;;;;;;;;;;;;;;;7.85;68.95;99493.00;5117671;28;19980;-67
2024/02/06 00:37:44;;;;;;;;;;;;;;;8.01;68.48;99510.06;5117967;28;19920;-67
2024/02/06 00:40:13;;;;;;;;;;;;;;;8.38;67.03;99495.06;5117606;28;19920;-68
2024/02/06 00:42:41;;;;;;;;;;;;;;;8.48;66.34;99499.34;5117551;27;19926;-65
2024/02/06 00:45:10;;;;;;;;;;;;;;;8.37;65.93;99503.53;5117804;28;19927;-66
2024/02/06 00:47:39;;;;;;;;;;;;;;;8.36;66.61;99496.75;5116802;28;19920;-66
2024/02/06 00:50:08;;;;;;;;;;;;;;;8.31;66.27;99509.44;5118035;28;20269;-68
2024/02/06 00:52:38;;;;;;;;;;;;;;;8.30;66.18;99504.34;5118096;28;19973;-66
2024/02/06 00:55:07;;;;;;;;;;;;;;;8.40;65.66;99493.34;5117789;28;19965;-67
2024/02/06 00:57:35;;;;;;;;;;;;;;;8.18;66.38;99491.53;5115960;28;20323;-67
2024/02/06 01:00:04;;;;;;;;;;;;;;;7.95;67.12;99492.25;5117598;28;20361;-66
2024/02/06 01:02:33;;;;;;;;;;;;;;;7.79;67.99;99487.03;5117157;28;19969;-66
2024/02/06 01:05:02;;;;;;;;;;;;;;;8.03;66.59;99488.06;5117549;28;19930;-66
2024/02/06 01:07:32;;;;;;;;;;;;;;;8.40;65.68;99486.59;5117503;28;19919;-66
2024/02/06 01:10:03;;;;;;;;;;;;;;;8.42;66.10;99481.53;5117679;28;19924;-67
2024/02/06 01:12:31;;;;;;;;;;;;;;;8.54;65.02;99472.22;5117427;28;19930;-66
2024/02/06 01:15:00;;;;;;;;;;;;;;;8.67;64.40;99462.97;5115806;28;20006;-67
2024/02/06 01:17:30;;;;;;;;;;;;;;;8.72;63.62;99461.28;5117091;28;19969;-67
2024/02/06 01:19:59;;;;;;;;;;;;;;;8.60;64.27;99451.94;5116492;28;19968;-66
2024/02/06 01:22:27;;;;;;;;;;;;;;;8.25;64.72;99462.75;5116812;28;20104;-66
2024/02/06 01:24:56;;;;;;;;;;;;;;;7.96;66.12;99455.84;5116699;28;19919;-66
2024/02/06 01:27:27;;;;;;;;;;;;;;;7.80;66.98;99459.09;5117039;28;19923;-67
2024/02/06 01:29:56;;;;;;;;;;;;;;;7.65;67.89;99453.94;5117024;28;19927;-67
2024/02/06 01:32:24;;;;;;;;;;;;;;;7.50;67.29;99458.03;5116966;28;20331;-66
2024/02/06 01:34:53;;;;;;;;;;;;;;;7.40;68.50;99446.94;5116966;28;20022;-66
2024/02/06 01:37:21;;;;;;;;;;;;;;;7.31;68.65;99446.88;5116670;28;19966;-66
2024/02/06 01:39:50;;;;;;;;;;;;;;;7.19;68.77;99446.78;5098067;28;19926;-68
2024/02/06 01:42:18;;;;;;;;;;;;;;;7.14;69.53;99440.81;5116766;28;19965;-67
2024/02/06 01:44:48;;;;;;;;;;;;;;;7.24;69.14;99437.53;5117103;28;20308;-67
2024/02/06 01:47:17;;;;;;;;;;;;;;;7.19;68.51;99431.56;5116358;27;20388;-65
2024/02/06 01:49:46;;;;;;;;;;;;;;;7.16;68.22;99429.84;5116703;28;20006;-67
2024/02/06 01:52:15;;;;;;;;;;;;;;;7.12;69.02;99440.81;5117197;28;20365;-66
2024/02/06 01:54:43;;;;;;;;;;;;;;;7.08;69.38;99438.22;5116219;28;19920;-66
2024/02/06 01:57:12;;;;;;;;;;;;;;;7.01;69.30;99400.94;5116827;28;20399;-66
2024/02/06 01:59:40;;;;;;;;;;;;;;;7.09;68.72;99424.69;5114839;28;19919;-66
2024/02/06 02:02:11;;;;;;;;;;;;;;;7.15;68.66;99424.75;5116101;28;20274;-66
2024/02/06 02:04:40;;;;;;;;;;;;;;;7.03;68.46;99435.63;5115291;28;19926;-65
2024/02/06 02:07:09;;;;;;;;;;;;;;;7.06;68.88;99414.50;5115996;28;19919;-66
2024/02/06 02:09:38;;;;;;;;;;;;;;;7.17;68.46;99433.22;5116245;28;19942;-66
2024/02/06 02:12:06;;;;;;;;;;;;;;;7.25;68.38;99412.13;5116784;28;20258;-68
2024/02/06 02:14:35;;;;;;;;;;;;;;;7.37;67.99;99426.63;5116500;28;19927;-65
2024/02/06 02:17:03;;;;;;;;;;;;;;;7.44;67.62;99408.06;5116143;28;19973;-67
2024/02/06 02:19:34;;;;;;;;;;;;;;;7.56;66.89;99408.13;5115904;28;19931;-67
2024/02/06 02:22:04;;;;;;;;;;;;;;;7.53;66.63;99402.19;5115704;28;19930;-67
2024/02/06 02:24:33;;;;;;;;;;;;;;;7.58;66.25;99401.41;5115585;28;19920;-67
2024/02/06 02:27:01;;;;;;;;;;;;;;;7.87;65.83;99415.09;5114407;28;20377;-66
2024/02/06 02:29:31;;;;;;;;;;;;;;;7.84;65.24;99410.03;5115467;28;19973;-65
2024/02/06 02:32:00;;;;;;;;;;;;;;;7.73;65.72;99396.41;5113775;28;19919;-68
2024/02/06 02:34:28;;;;;;;;;;;;;;;7.61;66.17;99401.41;5115580;28;19919;-66
2024/02/06 02:36:57;;;;;;;;;;;;;;;7.53;66.56;99410.69;5115782;28;20010;-66
2024/02/06 02:39:27;;;;;;;;;;;;;;;7.55;66.97;99380.19;5115445;28;19923;-66
2024/02/06 02:41:56;;;;;;;;;;;;;;;7.81;66.64;99396.44;5115496;28;19920;-66
2024/02/06 02:44:24;;;;;;;;;;;;;;;7.85;66.44;99393.94;5114316;28;20349;-66
2024/02/06 02:46:53;;;;;;;;;;;;;;;7.76;66.51;99401.50;5115207;28;19923;-67
2024/02/06 02:49:21;;;;;;;;;;;;;;;7.82;66.34;99395.63;5115537;28;20445;-66
2024/02/06 02:51:51;;;;;;;;;;;;;;;7.88;66.19;99386.34;5115126;28;19920;-66
2024/02/06 02:54:21;;;;;;;;;;;;;;;7.93;66.35;99388.88;5115048;28;19955;-66
2024/02/06 02:56:51;;;;;;;;;;;;;;;7.94;66.36;99390.59;5114477;28;20036;-67
2024/02/06 02:59:19;;;;;;;;;;;;;;;7.89;66.89;99390.56;5115254;28;19925;-66
2024/02/06 03:01:48;;;;;;;;;;;;;;;7.83;66.09;99382.06;5115172;28;19926;-66
2024/02/06 03:04:17;;;;;;;;;;;;;;;7.80;66.43;99390.50;5113925;28;19920;-66
2024/02/06 03:06:46;;;;;;;;;;;;;;;7.79;66.73;99390.50;5115215;28;20028;-66
2024/02/06 03:09:16;;;;;;;;;;;;;;;7.73;66.65;99393.00;5115480;28;19964;-67
2024/02/06 03:11:44;;;;;;;;;;;;;;;7.80;66.19;99387.97;5115032;28;19985;-67
2024/02/06 03:14:14;;;;;;;;;;;;;;;7.74;66.81;99398.13;5114726;28;19924;-67
2024/02/06 03:16:42;;;;;;;;;;;;;;;7.70;67.13;99393.84;5113937;28;19924;-67
2024/02/06 03:19:11;;;;;;;;;;;;;;;7.68;67.10;99387.06;5114593;28;19920;-67
2024/02/06 03:21:40;;;;;;;;;;;;;;;7.66;67.34;99384.50;5115025;28;19920;-66
2024/02/06 03:24:08;;;;;;;;;;;;;;;7.66;67.37;99381.09;5114562;28;19955;-65
2024/02/06 03:26:37;;;;;;;;;;;;;;;7.65;67.52;99381.97;5114631;28;19920;-66
2024/02/06 03:29:06;;;;;;;;;;;;;;;7.59;67.69;99372.63;5114833;28;20285;-67
2024/02/06 03:31:36;;;;;;;;;;;;;;;7.51;67.05;99373.41;5114878;28;19920;-67
2024/02/06 03:34:04;;;;;;;;;;;;;;;7.44;67.76;99372.50;5115387;28;19920;-66
2024/02/06 03:36:34;;;;;;;;;;;;;;;7.38;67.64;99377.56;5114796;28;19923;-66
2024/02/06 03:39:05;;;;;;;;;;;;;;;7.28;68.41;99378.31;5096323;28;19927;-68
2024/02/06 03:41:33;;;;;;;;;;;;;;;7.18;68.06;99371.47;5113849;28;19970;-66
2024/02/06 03:44:02;;;;;;;;;;;;;;;7.12;68.36;99369.75;5112830;28;20402;-66
2024/02/06 03:46:31;;;;;;;;;;;;;;;7.11;68.07;99377.34;5114329;28;19920;-66
2024/02/06 03:49:02;;;;;;;;;;;;;;;7.08;67.95;99369.72;5114562;28;19926;-67
2024/02/06 03:51:30;;;;;;;;;;;;;;;7.02;68.03;99373.06;5114731;28;19973;-66
2024/02/06 03:54:00;;;;;;;;;;;;;;;6.97;68.05;99371.31;5114562;28;19919;-66
2024/02/06 03:56:28;;;;;;;;;;;;;;;6.81;68.45;99366.94;5114243;28;19919;-67
2024/02/06 03:58:57;;;;;;;;;;;;;;;6.61;69.16;99370.13;5114519;28;19926;-66
2024/02/06 04:01:26;;;;;;;;;;;;;;;6.45;69.70;99373.38;5114122;28;20383;-68
2024/02/06 04:03:54;;;;;;;;;;;;;;;6.34;70.38;99354.63;5114472;28;20403;-66
2024/02/06 04:06:24;;;;;;;;;;;;;;;6.25;70.93;99358.75;5096300;28;19920;-67
2024/02/06 04:08:53;;;;;;;;;;;;;;;6.23;71.15;99363.81;5114831;28;19919;-67
2024/02/06 04:11:22;;;;;;;;;;;;;;;6.23;71.64;99356.22;5114134;28;20018;-66
2024/02/06 04:13:50;;;;;;;;;;;;;;;6.12;71.60;99357.75;5114675;28;20018;-67
2024/02/06 04:16:19;;;;;;;;;;;;;;;6.17;72.26;99363.72;5114366;28;20280;-67
2024/02/06 04:18:47;;;;;;;;;;;;;;;6.34;71.87;99351.25;5114333;28;19965;-66
2024/02/06 04:21:16;;;;;;;;;;;;;;;6.64;70.62;99347.34;5113996;28;19973;-66
2024/02/06 04:23:46;;;;;;;;;;;;;;;6.81;69.33;99344.97;5113952;28;20341;-66
2024/02/06 04:26:14;;;;;;;;;;;;;;;7.09;68.48;99351.09;5113070;28;20419;-67
2024/02/06 04:28:43;;;;;;;;;;;;;;;7.13;68.18;99350.28;5114329;28;19927;-67
2024/02/06 04:31:12;;;;;;;;;;;;;;;7.16;68.33;99346.09;5113981;28;19919;-68
2024/02/06 04:33:41;;;;;;;;;;;;;;;7.26;67.10;99341.94;5112675;28;20289;-68
2024/02/06 04:36:10;;;;;;;;;;;;;;;7.38;66.83;99342.03;5114232;28;19966;-65
2024/02/06 04:38:39;;;;;;;;;;;;;;;7.33;67.19;99339.44;5113876;28;19920;-67
2024/02/06 04:41:08;;;;;;;;;;;;;;;7.35;66.55;99345.38;5113839;28;19919;-66
2024/02/06 04:43:37;;;;;;;;;;;;;;;7.33;66.61;99343.69;5112875;28;19920;-67
2024/02/06 04:46:06;;;;;;;;;;;;;;;7.25;67.35;99337.69;5113784;28;19943;-66
2024/02/06 04:48:34;;;;;;;;;;;;;;;7.13;67.44;99340.13;5114401;28;19926;-67
2024/02/06 04:51:03;;;;;;;;;;;;;;;6.83;67.83;99340.75;5114094;28;19920;-67
2024/02/06 04:53:32;;;;;;;;;;;;;;;6.60;68.21;99332.94;5113974;28;19920;-67
2024/02/06 04:56:00;;;;;;;;;;;;;;;6.45;68.71;99337.88;5115380;28;19972;-66
2024/02/06 04:58:30;;;;;;;;;;;;;;;6.32;69.29;99330.97;5117299;28;19926;-67
2024/02/06 05:00:59;;;;;;;;;;;;;;;6.41;69.37;99330.19;5117127;28;20365;-67
2024/02/06 05:03:28;;;;;;;;;;;;;;;6.46;69.73;99329.41;5117629;28;19919;-67
2024/02/06 05:05:57;;;;;;;;;;;;;;;6.38;69.53;99325.94;5116273;28;19920;-67
2024/02/06 05:08:25;;;;;;;;;;;;;;;6.29;70.00;99325.00;5117505;28;19924;-66
2024/02/06 05:10:58;;;;;;;;;;;;;;;6.22;70.75;99323.25;5117525;28;19924;-67
2024/02/06 05:13:26;;;;;;;;;;;;;;;6.18;70.59;99329.97;5117355;28;19923;-66
2024/02/06 05:15:57;;;;;;;;;;;;;;;6.18;70.91;99327.44;5116010;28;19924;-66
2024/02/06 05:18:27;;;;;;;;;;;;;;;6.05;70.83;99320.53;5117319;28;20414;-66
2024/02/06 05:20:57;;;;;;;;;;;;;;;6.13;70.82;99318.94;5115483;28;19930;-67
2024/02/06 05:23:25;;;;;;;;;;;;;;;6.23;70.93;99323.28;5116946;28;19924;-67
2024/02/06 05:25:54;;;;;;;;;;;;;;;6.31;70.71;99319.13;5116728;28;19919;-67
2024/02/06 05:28:22;;;;;;;;;;;;;;;6.34;70.11;99319.16;5117132;28;19920;-67
2024/02/06 05:30:52;;;;;;;;;;;;;;;6.30;70.41;99312.38;5117072;28;20361;-66
2024/02/06 05:33:22;;;;;;;;;;;;;;;6.24;70.45;99312.28;5117018;28;19953;-66
2024/02/06 05:35:51;;;;;;;;;;;;;;;6.33;70.64;99307.34;5116714;27;19942;-66
2024/02/06 05:38:19;;;;;;;;;;;;;;;6.58;70.34;99311.78;5116747;28;20021;-66
2024/02/06 05:40:48;;;;;;;;;;;;;;;6.74;69.25;99311.09;5116652;28;19919;-67
2024/02/06 05:43:16;;;;;;;;;;;;;;;6.77;68.91;99309.44;5116407;28;19945;-66
2024/02/06 05:45:45;;;;;;;;;;;;;;;7.06;67.69;99313.03;5116484;28;19923;-67
2024/02/06 05:48:13;;;;;;;;;;;;;;;7.13;67.21;99309.69;5116640;28;19919;-67
2024/02/06 05:50:43;;;;;;;;;;;;;;;7.13;67.10;99304.59;5116921;28;20371;-66
2024/02/06 05:53:12;;;;;;;;;;;;;;;7.16;67.19;99309.72;5117138;28;19998;-66
2024/02/06 05:55:40;;;;;;;;;;;;;;;7.15;67.18;99308.03;5116539;28;19926;-66
2024/02/06 05:58:11;;;;;;;;;;;;;;;7.10;67.26;99310.50;5116426;28;20006;-66
2024/02/06 06:00:39;;;;;;;;;;;;;;;7.14;66.83;99316.47;5115091;28;21819;-66
2024/02/06 06:03:08;;;;;;;;;;;;;;;7.12;66.29;99310.53;5116785;28;19919;-65
2024/02/06 06:05:36;;;;;;;;;;;;;;;7.08;66.53;99309.66;5116003;28;19926;-67
2024/02/06 06:08:07;;;;;;;;;;;;;;;7.07;66.75;99304.59;5114945;28;19988;-67
2024/02/06 06:10:36;;;;;;;;;;;;;;;7.05;67.11;99316.41;5116382;28;19923;-66
2024/02/06 06:13:04;;;;;;;;;;;;;;;7.02;66.83;99311.31;5116410;27;20273;-66
2024/02/06 06:15:33;;;;;;;;;;;;;;;6.94;66.74;99312.94;5116123;28;19920;-67
2024/02/06 06:18:02;;;;;;;;;;;;;;;6.87;67.14;99301.03;5114503;28;19990;-67
2024/02/06 06:20:31;;;;;;;;;;;;;;;6.80;67.39;99309.44;5115999;28;20391;-66
2024/02/06 06:23:00;;;;;;;;;;;;;;;6.77;67.79;99309.44;5114482;28;19927;-67
2024/02/06 06:25:30;;;;;;;;;;;;;;;6.80;67.63;99304.38;5115553;28;19920;-67
2024/02/06 06:27:59;;;;;;;;;;;;;;;6.74;67.74;99306.00;5115511;28;19951;-66
2024/02/06 06:30:27;;;;;;;;;;;;;;;6.65;67.88;99305.94;5115343;28;20442;-67
2024/02/06 06:32:57;;;;;;;;;;;;;;;6.67;67.79;99303.44;5115833;28;19931;-67
2024/02/06 06:35:26;;;;;;;;;;;;;;;6.67;67.68;99309.34;5115935;28;19924;-67
2024/02/06 06:37:55;;;;;;;;;;;;;;;6.65;68.25;99310.16;5114547;28;19923;-66
2024/02/06 06:40:23;;;;;;;;;;;;;;;6.67;67.95;99311.88;5114440;28;19973;-67
2024/02/06 06:42:53;;;;;;;;;;;;;;;6.75;68.38;99312.78;5113891;28;19920;-66
2024/02/06 06:45:22;;;;;;;;;;;;;;;6.79;68.46;99305.22;5115735;28;19959;-66
2024/02/06 06:47:50;;;;;;;;;;;;;;;6.80;68.30;99305.22;5115202;28;19965;-67
2024/02/06 06:50:19;;;;;;;;;;;;;;;6.82;68.06;99307.75;5115413;28;20281;-66
2024/02/06 06:52:47;;;;;;;;;;;;;;;6.85;67.92;99307.78;5101746;28;20019;-68
2024/02/06 06:55:16;;;;;;;;;;;;;;;6.89;67.81;99312.03;5094655;28;19958;-66
2024/02/06 06:57:45;;;;;;;;;;;;;;;6.94;67.89;99312.94;5094630;28;20014;-66
2024/02/06 07:00:15;;;;;;;;;;;;;;;7.06;68.18;99313.03;5094544;28;19920;-67
2024/02/06 07:02:44;;;;;;;;;;;;;;;7.22;69.17;99314.84;5094423;28;20008;-66
2024/02/06 07:05:12;;;;;;;;;;;;;;;7.34;69.15;99312.38;5094489;28;20239;-67
2024/02/06 07:07:42;;;;;;;;;;;;;;;7.47;68.82;99321.75;5094205;28;19952;-66
2024/02/06 07:10:11;;;;;;;;;;;;;;;7.52;68.36;99311.63;5092861;28;20358;-66
2024/02/06 07:12:39;;;;;;;;;;;;;;;7.63;69.24;99317.63;5094309;28;19920;-67
2024/02/06 07:15:08;;;;;;;;;;;;;;;7.76;68.10;99317.69;5093432;28;19920;-67
2024/02/06 07:17:39;;;;;;;;;;;;;;;7.83;68.01;99316.00;5094146;28;19924;-66
2024/02/06 07:20:08;;;;;;;;;;;;;;;7.93;67.47;99317.75;5094245;28;19973;-65
2024/02/06 07:22:36;;;;;;;;;;;;;;;8.10;67.72;99322.06;5094216;28;19920;-66
2024/02/06 07:25:06;;;;;;;;;;;;;;;8.24;67.38;99323.78;5094094;28;20361;-66
2024/02/06 07:27:35;;;;;;;;;;;;;;;8.38;66.79;99332.31;5094829;28;20006;-66
2024/02/06 07:30:03;;;;;;;;;;;;;;;8.46;67.13;99325.56;5094516;28;20039;-66
2024/02/06 07:32:32;;;;;;;;;;;;;;;8.57;67.25;99326.41;5094183;28;19920;-66
2024/02/06 07:35:02;;;;;;;;;;;;;;;8.77;67.04;99322.22;5094404;28;19920;-66
2024/02/06 07:37:32;;;;;;;;;;;;;;;8.96;67.16;99328.16;5093036;28;19920;-65
2024/02/06 07:40:03;;;;;;;;;;;;;;;9.13;66.52;99322.22;5094448;28;19927;-66
2024/02/06 07:42:32;;;;;;;;;;;;;;;9.27;66.22;99327.28;5094052;28;19920;-67
2024/02/06 07:45:01;;;;;;;;;;;;;;;9.42;65.72;99333.22;5094129;28;19920;-67
2024/02/06 07:47:30;;;;;;;;;;;;;;;9.54;65.55;99329.78;5094284;28;19927;-65
2024/02/06 07:49:58;;;;;;;;;;;;;;;9.65;65.38;99332.28;5094248;28;19928;-66
2024/02/06 07:52:28;;;;;;;;;;;;;;;9.69;65.20;99327.22;5093924;28;19941;-66
2024/02/06 07:54:56;;;;;;;;;;;;;;;9.76;65.53;99325.47;5092927;28;20411;-66
2024/02/06 07:57:25;;;;;;;;;;;;;;;9.82;64.98;99333.09;5094515;28;19920;-67
2024/02/06 07:59:53;;;;;;;;;;;;;;;9.89;65.13;99327.97;5094146;28;19920;-66
2024/02/06 08:02:22;;;;;;;;;;;;;;;9.98;65.02;99332.22;5092703;28;19965;-66
2024/02/06 08:04:52;;;;;;;;;;;;;;;10.02;64.13;99333.88;5093835;28;19919;-66
2024/02/06 08:07:24;;;;;;;;;;;;;;;10.12;64.36;99335.56;5094130;28;19920;-67
2024/02/06 08:09:55;;;;;;;;;;;;;;;10.26;64.46;99333.78;5093976;28;19924;-66
2024/02/06 08:12:24;;;;;;;;;;;;;;;10.40;64.26;99321.81;5094334;28;19920;-66
2024/02/06 08:14:53;;;;;;;;;;;;;;;10.43;64.65;99331.16;5093919;28;20022;-66
2024/02/06 08:17:21;;;;;;;;;;;;;;;10.54;64.64;99332.78;5093622;28;20015;-66
2024/02/06 08:19:50;;;;;;;;;;;;;;;10.63;64.49;99334.41;5093747;28;19946;-65
2024/02/06 08:22:18;;;;;;;;;;;;;;;10.69;64.52;99330.13;5093550;28;19946;-66
2024/02/06 08:24:47;;;;;;;;;;;;;;;10.76;64.03;99326.69;5093404;28;19977;-66
2024/02/06 08:27:17;;;;;;;;;;;;;;;10.86;63.89;99327.47;5092794;28;20038;-67
2024/02/06 08:29:45;;;;;;;;;;;;;;;11.00;64.07;99335.00;5094673;28;19920;-67
2024/02/06 08:32:14;;;;;;;;;;;;;;;11.12;63.33;99335.75;5097810;28;19926;-67
2024/02/06 08:34:42;;;;;;;;;;;;;;;11.29;62.95;99338.16;5097751;28;19920;-67
2024/02/06 08:37:11;;;;;;;;;;;;;;;11.39;62.36;99339.78;5097404;28;19920;-67
2024/02/06 08:39:40;;;;;;;;;;;;;;;11.45;62.17;99334.59;5096301;28;19927;-66
2024/02/06 08:42:09;;;;;;;;;;;;;;;11.57;62.08;99339.56;5097002;28;19943;-68
2024/02/06 08:44:40;;;;;;;;;;;;;;;11.70;61.63;99346.31;5097300;28;19920;-66
2024/02/06 08:47:08;;;;;;;;;;;;;;;11.86;61.20;99336.72;5097401;28;19920;-67
2024/02/06 08:49:37;;;;;;;;;;;;;;;12.03;60.92;99329.72;5097545;28;19959;-66
2024/02/06 08:52:06;;;;;;;;;;;;;;;12.14;60.15;99327.03;5097556;28;19927;-68
2024/02/06 08:54:34;;;;;;;;;;;;;;;12.28;59.90;99335.38;5097375;28;20362;-68
2024/02/06 08:57:02;;;;;;;;;;;;;;;12.34;58.00;99330.16;5097359;28;19924;-67
2024/02/06 08:59:31;;;;;;;;;;;;;;;12.39;55.82;99328.38;5096861;28;20366;-66
2024/02/06 09:02:02;;;;;;;;;;;;;;;12.46;55.36;99322.31;5095880;28;19920;-66
2024/02/06 09:04:32;;;;;;;;;;;;;;;12.57;54.41;99323.03;5097236;28;19920;-65
2024/02/06 09:07:00;;;;;;;;;;;;;;;12.66;53.81;99323.72;5095398;28;19920;-67
2024/02/06 09:09:29;;;;;;;;;;;;;;;12.75;53.28;99327.84;5096663;28;19927;-67
2024/02/06 09:11:57;;;;;;;;;;;;;;;12.79;52.99;99324.38;5097104;28;19924;-66
2024/02/06 09:14:26;;;;;;;;;;;;;;;12.87;53.00;99329.38;5096922;28;19930;-66
2024/02/06 09:16:54;;;;;;;;;;;;;;;12.87;52.77;99322.56;5095316;28;19920;-66
2024/02/06 09:19:26;;;;;;;;;;;;;;;12.97;52.57;99324.09;5097014;28;20010;-66
2024/02/06 09:21:55;;;;;;;;;;;;;;;12.95;51.97;99325.00;5096719;28;20265;-66
2024/02/06 09:24:23;;;;;;;;;;;;;;;12.96;52.38;99327.50;5096313;28;19965;-65
2024/02/06 09:26:54;;;;;;;;;;;;;;;12.94;51.53;99329.25;5095205;28;19920;-67
2024/02/06 09:29:24;;;;;;;;;;;;;;;12.93;51.34;99332.72;5095471;28;19920;-66
2024/02/06 09:31:52;;;;;;;;;;;;;;;12.93;51.39;99327.59;5095039;28;19927;-65
2024/02/06 09:34:21;;;;;;;;;;;;;;;12.91;51.45;99319.06;5095349;28;19959;-66
2024/02/06 09:36:51;;;;;;;;;;;;;;;12.86;51.77;99325.97;5096328;28;19920;-67
2024/02/06 09:39:23;;;;;;;;;;;;;;;12.84;51.71;99325.16;5096466;28;19920;-67
2024/02/06 09:41:52;;;;;;;;;;;;;;;12.86;52.16;99331.09;5094288;28;19920;-66
2024/02/06 09:44:28;;;;;;;;;;;;;;;12.85;52.46;99334.53;5096269;28;19962;-66
2024/02/06 09:46:58;;;;;;;;;;;;;;;12.82;52.09;99331.16;5096080;28;19920;-66
2024/02/06 09:49:27;;;;;;;;;;;;;;;12.81;52.01;99338.03;5094997;28;19920;-66
2024/02/06 09:51:58;;;;;;;;;;;;;;;12.78;51.51;99327.81;5096249;28;19927;-66
2024/02/06 09:54:27;;;;;;;;;;;;;;;12.77;51.00;99331.25;5095945;28;20378;-66
2024/02/06 09:56:57;;;;;;;;;;;;;;;12.76;50.29;99330.38;5096274;28;20420;-66
2024/02/06 09:59:26;;;;;;;;;;;;;;;12.76;50.42;99339.81;5105305;28;20358;-66
2024/02/06 10:01:55;;;;;;;;;;;;;;;12.79;50.37;99330.34;5116363;28;20388;-67
2024/02/06 10:04:26;;;;;;;;;;;;;;;12.83;50.78;99326.03;5116101;28;20002;-65
2024/02/06 10:06:55;;;;;;;;;;;;;;;12.86;50.37;99325.97;5115982;28;20392;-65
2024/02/06 10:09:25;;;;;;;;;;;;;;;12.93;50.28;99327.59;5114943;28;20277;-67
2024/02/06 10:11:56;;;;;;;;;;;;;;;13.02;49.65;99327.44;5116341;28;19920;-67
2024/02/06 10:14:25;;;;;;;;;;;;;;;13.08;49.88;99324.78;5116345;28;20026;-65
2024/02/06 10:16:53;;;;;;;;;;;;;;;13.18;49.88;99328.91;5116148;28;19927;-67
2024/02/06 10:19:31;;;;;;;;;;;;;;;13.23;50.40;99339.06;5115858;28;19923;-65
2024/02/06 10:22:02;;;;;;;;;;;;;;;13.27;50.15;99326.16;5114830;28;19969;-66
2024/02/06 10:24:33;;;;;;;;;;;;;;;13.29;50.45;99326.16;5115520;28;19927;-66
2024/02/06 10:27:02;;;;;;;;;;;;;;;13.32;49.95;99329.50;5116113;28;19926;-66
2024/02/06 10:29:32;;;;;;;;;;;;;;;13.39;50.27;99332.78;5115593;28;19926;-65
2024/02/06 10:32:01;;;;;;;;;;;;;;;13.54;49.81;99332.53;5114522;28;19920;-67
2024/02/06 10:34:30;;;;;;;;;;;;;;;13.60;49.22;99332.44;5115432;28;19924;-67
2024/02/06 10:36:59;;;;;;;;;;;;;;;13.71;49.20;99332.22;5115715;28;20471;-66
2024/02/06 10:39:29;;;;;;;;;;;;;;;13.77;48.67;99314.16;5115559;28;20372;-67
2024/02/06 10:41:59;;;;;;;;;;;;;;;13.79;48.43;99317.53;5097387;28;19926;-65
2024/02/06 10:44:48;;;;;;;;;;;;;;;13.86;48.84;99319.09;5115561;28;19923;-67
2024/02/06 10:47:17;;;;;;;;;;;;;;;13.89;48.41;99306.22;5115371;28;19920;-67
2024/02/06 10:49:45;;;;;;;;;;;;;;;13.88;48.87;99313.06;5115580;28;19919;-66
2024/02/06 10:52:15;;;;;;;;;;;;;;;13.81;48.39;99305.50;5115493;28;19920;-67
2024/02/06 10:54:44;;;;;;;;;;;;;;;13.83;48.79;99301.19;5114356;28;20019;-67
2024/02/06 10:57:17;;;;;;;;;;;;;;;13.84;49.37;99305.47;5115017;28;19920;-66
2024/02/06 10:59:47;;;;;;;;;;;;;;;13.89;49.16;99303.66;5115401;27;19920;-65
2024/02/06 11:02:23;;;;;;;;;;;;;;;13.87;49.09;99302.81;5114947;28;20266;-66
2024/02/06 11:04:56;;;;;;;;;;;;;;;13.80;49.16;99302.09;5114120;28;19919;-67
2024/02/06 11:07:26;;;;;;;;;;;;;;;13.74;49.17;99303.94;5114923;28;19927;-66
2024/02/06 11:09:58;;;;;;;;;;;;;;;13.67;49.28;99297.25;5114903;28;19920;-65
2024/02/06 11:12:29;;;;;;;;;;;;;;;13.64;49.67;99293.03;5115056;28;19969;-65
2024/02/06 11:15:08;;;;;;;;;;;;;;;13.69;49.67;99295.50;5114673;28;20361;-67
2024/02/06 11:17:39;;;;;;;;;;;;;;;13.78;49.54;99291.03;5114612;28;19919;-66
2024/02/06 11:20:13;;;;;;;;;;;;;;;13.90;49.58;99301.03;5114882;28;19927;-66
2024/02/06 11:22:44;;;;;;;;;;;;;;;14.02;49.76;99300.81;5113808;28;19982;-67
2024/02/06 11:25:17;;;;;;;;;;;;;;;14.01;49.62;99309.34;5114872;28;19923;-67
2024/02/06 11:27:49;;;;;;;;;;;;;;;14.01;49.78;99299.09;5114692;28;20467;-67
2024/02/06 11:30:18;;;;;;;;;;;;;;;13.96;49.42;99300.09;5114412;28;20367;-66
2024/02/06 11:32:46;;;;;;;;;;;;;;;13.95;49.68;99303.53;5114492;28;20369;-66
2024/02/06 11:35:15;;;;;;;;;;;;;;;13.99;49.87;99310.25;5114391;28;20028;-67
2024/02/06 11:37:53;;;;;;;;;;;;;;;14.03;49.81;99311.91;5114666;28;19920;-66
2024/02/06 11:40:25;;;;;;;;;;;;;;;13.88;49.59;99310.50;5114785;28;19924;-65
2024/02/06 11:43:02;;;;;;;;;;;;;;;13.87;50.09;99305.38;5114690;28;19969;-66
2024/02/06 11:45:34;;;;;;;;;;;;;;;13.98;50.45;99308.59;5114343;28;20014;-67
2024/02/06 11:48:05;;;;;;;;;;;;;;;14.02;49.63;99294.81;5114376;28;19920;-67
2024/02/06 11:50:34;;;;;;;;;;;;;;;14.08;49.30;99304.97;5114975;28;20400;-67
2024/02/06 11:53:05;;;;;;;;;;;;;;;14.30;49.79;99289.97;5114325;28;19931;-67
2024/02/06 11:55:34;;;;;;;;;;;;;;;14.46;49.84;99297.31;5114071;28;19920;-66
2024/02/06 11:58:06;;;;;;;;;;;;;;;14.55;48.75;99299.66;5114665;28;19920;-67
2024/02/06 12:00:35;;;;;;;;;;;;;;;14.71;48.22;99288.16;5114556;28;19926;-66
2024/02/06 12:03:03;;;;;;;;;;;;;;;14.95;48.16;99281.56;5114354;28;19920;-66
2024/02/06 12:05:37;;;;;;;;;;;;;;;15.10;47.50;99282.91;5117096;28;19924;-67
2024/02/06 12:08:10;;;;;;;;;;;;;;;15.30;47.41;99278.09;5118691;28;19927;-65
2024/02/06 12:10:39;;;;;;;;;;;;;;;15.31;46.50;99277.22;5118636;28;19919;-66
2024/02/06 12:13:11;;;;;;;;;;;;;;;15.09;46.44;99274.34;5118596;28;19923;-67
2024/02/06 12:15:41;;;;;;;;;;;;;;;15.17;46.23;99271.59;5118614;28;19985;-65
2024/02/06 12:18:12;;;;;;;;;;;;;;;15.22;46.82;99269.75;5118197;28;19920;-67
2024/02/06 12:20:41;;;;;;;;;;;;;;;15.26;46.47;99266.22;5118265;28;19919;-66
2024/02/06 12:23:11;;;;;;;;;;;;;;;15.33;46.45;99268.56;5117772;28;19926;-67
2024/02/06 12:25:41;;;;;;;;;;;;;;;15.37;46.26;99262.47;5116857;28;19969;-67
2024/02/06 12:28:14;;;;;;;;;;;;;;;15.41;46.69;99266.66;5117135;28;20361;-67
2024/02/06 12:30:45;;;;;;;;;;;;;;;15.55;46.61;99261.16;5117876;28;19926;-67
2024/02/06 12:33:13;;;;;;;;;;;;;;;15.51;45.87;99267.28;5118239;28;19919;-66
2024/02/06 12:35:42;;;;;;;;;;;;;;;15.50;46.17;99262.19;5117688;28;20379;-65
2024/02/06 12:38:11;;;;;;;;;;;;;;;15.55;45.84;99266.31;5118092;28;19926;-66
2024/02/06 12:40:41;;;;;;;;;;;;;;;15.50;45.87;99260.44;5118047;28;20018;-67
2024/02/06 12:43:11;;;;;;;;;;;;;;;15.55;46.19;99258.56;5117952;28;20018;-67
2024/02/06 12:45:43;;;;;;;;;;;;;;;15.57;46.01;99256.84;5117966;28;19920;-67
2024/02/06 12:48:11;;;;;;;;;;;;;;;15.60;46.55;99240.44;5117459;28;19972;-66
2024/02/06 12:50:41;;;;;;;;;;;;;;;15.60;46.28;99246.44;5117890;28;19919;-67
2024/02/06 12:53:10;;;;;;;;;;;;;;;15.36;45.91;99247.06;5117770;28;19926;-66
2024/02/06 12:55:41;;;;;;;;;;;;;;;15.34;46.59;99243.72;5116359;28;20323;-66
2024/02/06 12:58:10;;;;;;;;;;;;;;;15.36;46.44;99236.78;5117802;28;19920;-66
2024/02/06 13:00:39;;;;;;;;;;;;;;;15.35;46.30;99240.25;5117541;28;19970;-66
2024/02/06 13:03:11;;;;;;;;;;;;;;;15.21;46.17;99247.50;5117592;28;19919;-66